sensor_id;sensor_type;location;lat;lon;timestamp;P1;durP1;ratioP1;P2;durP2;ratioP2
17618;SDS011;8928;51.678;6.074;2022-11-04T00:02:18;13.27;;;7.40;;
17618;SDS011;8928;51.678;6.074;2022-11-04T00:05:05;13.10;;;7.50;;
17618;SDS011;8928;51.678;6.074;2022-11-04T00:07:54;13.40;;;7.60;;
17618;SDS011;8928;51.678;6.074;2022-11-04T00:11:13;14.77;;;7.93;;
17618;SDS011;8928;51.678;6.074;2022-11-04T00:14:17;14.83;;;8.30;;
17618;SDS011;8928;51.678;6.074;2022-11-04T00:17:05;13.83;;;7.87;;
17618;SDS011;8928;51.678;6.074;2022-11-04T00:20:07;16.87;;;8.00;;
17618;SDS011;8928;51.678;6.074;2022-11-04T00:23:14;16.27;;;8.03;;
17618;SDS011;8928;51.678;6.074;2022-11-04T00:26:18;14.13;;;8.07;;
17618;SDS011;8928;51.678;6.074;2022-11-04T00:29:22;16.00;;;9.00;;
17618;SDS011;8928;51.678;6.074;2022-11-04T00:32:10;14.07;;;8.70;;
17618;SDS011;8928;51.678;6.074;2022-11-04T00:35:14;13.33;;;7.70;;
17618;SDS011;8928;51.678;6.074;2022-11-04T00:38:01;16.73;;;6.37;;
17618;SDS011;8928;51.678;6.074;2022-11-04T00:40:50;6.90;;;3.70;;
17618;SDS011;8928;51.678;6.074;2022-11-04T00:43:37;4.53;;;2.73;;
17618;SDS011;8928;51.678;6.074;2022-11-04T00:46:24;3.90;;;1.97;;
17618;SDS011;8928;51.678;6.074;2022-11-04T00:49:11;2.80;;;1.40;;
17618;SDS011;8928;51.678;6.074;2022-11-04T00:51:58;1.43;;;1.00;;
17618;SDS011;8928;51.678;6.074;2022-11-04T00:54:46;6.87;;;1.37;;
17618;SDS011;8928;51.678;6.074;2022-11-04T00:57:34;5.47;;;1.10;;
17618;SDS011;8928;51.678;6.074;2022-11-04T01:00:21;3.30;;;1.50;;
17618;SDS011;8928;51.678;6.074;2022-11-04T01:03:08;3.90;;;1.60;;
17618;SDS011;8928;51.678;6.074;2022-11-04T01:05:56;5.90;;;1.67;;
17618;SDS011;8928;51.678;6.074;2022-11-04T01:08:43;2.70;;;1.60;;
17618;SDS011;8928;51.678;6.074;2022-11-04T01:11:30;4.53;;;2.20;;
17618;SDS011;8928;51.678;6.074;2022-11-04T01:14:19;4.77;;;2.60;;
17618;SDS011;8928;51.678;6.074;2022-11-04T01:17:07;7.00;;;2.93;;
17618;SDS011;8928;51.678;6.074;2022-11-04T01:19:54;6.77;;;3.57;;
17618;SDS011;8928;51.678;6.074;2022-11-04T01:22:41;8.77;;;3.70;;
17618;SDS011;8928;51.678;6.074;2022-11-04T01:25:28;5.87;;;3.50;;
17618;SDS011;8928;51.678;6.074;2022-11-04T01:28:15;9.10;;;4.23;;
17618;SDS011;8928;51.678;6.074;2022-11-04T01:31:05;9.13;;;5.63;;
17618;SDS011;8928;51.678;6.074;2022-11-04T01:33:53;14.10;;;7.03;;
17618;SDS011;8928;51.678;6.074;2022-11-04T01:36:41;21.17;;;9.00;;
17618;SDS011;8928;51.678;6.074;2022-11-04T01:39:28;21.77;;;10.50;;
17618;SDS011;8928;51.678;6.074;2022-11-04T01:42:16;24.73;;;12.47;;
17618;SDS011;8928;51.678;6.074;2022-11-04T01:45:07;22.93;;;12.50;;
17618;SDS011;8928;51.678;6.074;2022-11-04T01:48:02;28.90;;;14.07;;
17618;SDS011;8928;51.678;6.074;2022-11-04T01:50:55;32.67;;;15.53;;
17618;SDS011;8928;51.678;6.074;2022-11-04T01:53:42;32.70;;;15.67;;
17618;SDS011;8928;51.678;6.074;2022-11-04T01:56:30;30.23;;;14.80;;
17618;SDS011;8928;51.678;6.074;2022-11-04T01:59:20;33.03;;;14.47;;
17618;SDS011;8928;51.678;6.074;2022-11-04T02:02:10;31.93;;;14.53;;
17618;SDS011;8928;51.678;6.074;2022-11-04T02:04:59;29.97;;;14.90;;
17618;SDS011;8928;51.678;6.074;2022-11-04T02:07:46;30.23;;;14.50;;
17618;SDS011;8928;51.678;6.074;2022-11-04T02:10:39;30.47;;;14.30;;
17618;SDS011;8928;51.678;6.074;2022-11-04T02:13:30;29.93;;;14.13;;
17618;SDS011;8928;51.678;6.074;2022-11-04T02:16:19;27.13;;;13.47;;
17618;SDS011;8928;51.678;6.074;2022-11-04T02:19:24;30.60;;;14.13;;
17618;SDS011;8928;51.678;6.074;2022-11-04T02:22:51;32.63;;;14.40;;
17618;SDS011;8928;51.678;6.074;2022-11-04T02:29:58;27.53;;;13.23;;
17618;SDS011;8928;51.678;6.074;2022-11-04T02:33:04;28.80;;;13.40;;
17618;SDS011;8928;51.678;6.074;2022-11-04T02:36:01;28.27;;;12.37;;
17618;SDS011;8928;51.678;6.074;2022-11-04T02:38:51;28.27;;;13.07;;
17618;SDS011;8928;51.678;6.074;2022-11-04T02:41:46;25.57;;;12.23;;
17618;SDS011;8928;51.678;6.074;2022-11-04T02:44:41;27.97;;;12.23;;
17618;SDS011;8928;51.678;6.074;2022-11-04T02:47:37;26.50;;;11.83;;
17618;SDS011;8928;51.678;6.074;2022-11-04T02:50:30;28.30;;;11.73;;
17618;SDS011;8928;51.678;6.074;2022-11-04T02:53:22;26.77;;;11.37;;
17618;SDS011;8928;51.678;6.074;2022-11-04T02:56:14;28.03;;;10.97;;
17618;SDS011;8928;51.678;6.074;2022-11-04T02:59:06;28.90;;;11.33;;
17618;SDS011;8928;51.678;6.074;2022-11-04T03:01:56;29.73;;;11.17;;
17618;SDS011;8928;51.678;6.074;2022-11-04T03:04:48;24.47;;;11.23;;
17618;SDS011;8928;51.678;6.074;2022-11-04T03:07:38;25.80;;;11.00;;
17618;SDS011;8928;51.678;6.074;2022-11-04T03:10:29;24.23;;;10.60;;
17618;SDS011;8928;51.678;6.074;2022-11-04T03:13:21;28.37;;;10.87;;
17618;SDS011;8928;51.678;6.074;2022-11-04T03:16:14;24.47;;;11.03;;
17618;SDS011;8928;51.678;6.074;2022-11-04T03:19:06;26.97;;;10.40;;
17618;SDS011;8928;51.678;6.074;2022-11-04T03:22:00;19.83;;;9.73;;
17618;SDS011;8928;51.678;6.074;2022-11-04T03:24:51;16.97;;;9.00;;
17618;SDS011;8928;51.678;6.074;2022-11-04T03:27:41;24.30;;;9.20;;
17618;SDS011;8928;51.678;6.074;2022-11-04T03:30:36;21.37;;;8.30;;
17618;SDS011;8928;51.678;6.074;2022-11-04T03:33:25;18.80;;;8.00;;
17618;SDS011;8928;51.678;6.074;2022-11-04T03:36:15;17.33;;;7.10;;
17618;SDS011;8928;51.678;6.074;2022-11-04T03:39:05;17.83;;;6.63;;
17618;SDS011;8928;51.678;6.074;2022-11-04T03:41:53;14.37;;;5.83;;
17618;SDS011;8928;51.678;6.074;2022-11-04T03:44:42;14.93;;;5.80;;
17618;SDS011;8928;51.678;6.074;2022-11-04T03:47:29;20.10;;;6.20;;
17618;SDS011;8928;51.678;6.074;2022-11-04T03:50:18;19.57;;;5.97;;
17618;SDS011;8928;51.678;6.074;2022-11-04T03:53:15;18.33;;;5.90;;
17618;SDS011;8928;51.678;6.074;2022-11-04T03:56:12;19.57;;;5.97;;
17618;SDS011;8928;51.678;6.074;2022-11-04T03:59:22;16.10;;;5.40;;
17618;SDS011;8928;51.678;6.074;2022-11-04T04:02:26;17.37;;;5.20;;
17618;SDS011;8928;51.678;6.074;2022-11-04T04:05:25;18.47;;;5.53;;
17618;SDS011;8928;51.678;6.074;2022-11-04T04:08:15;19.53;;;4.97;;
17618;SDS011;8928;51.678;6.074;2022-11-04T04:11:11;14.73;;;5.03;;
17618;SDS011;8928;51.678;6.074;2022-11-04T04:14:04;11.80;;;4.50;;
17618;SDS011;8928;51.678;6.074;2022-11-04T04:16:54;15.30;;;5.30;;
17618;SDS011;8928;51.678;6.074;2022-11-04T04:19:44;19.67;;;5.30;;
17618;SDS011;8928;51.678;6.074;2022-11-04T04:22:35;23.47;;;5.20;;
17618;SDS011;8928;51.678;6.074;2022-11-04T04:25:25;20.53;;;5.03;;
17618;SDS011;8928;51.678;6.074;2022-11-04T04:28:34;25.83;;;4.80;;
17618;SDS011;8928;51.678;6.074;2022-11-04T04:31:22;13.83;;;4.83;;
17618;SDS011;8928;51.678;6.074;2022-11-04T04:34:30;14.90;;;4.70;;
17618;SDS011;8928;51.678;6.074;2022-11-04T04:37:18;15.27;;;5.03;;
17618;SDS011;8928;51.678;6.074;2022-11-04T04:40:08;18.37;;;5.13;;
17618;SDS011;8928;51.678;6.074;2022-11-04T04:43:18;12.43;;;5.00;;
17618;SDS011;8928;51.678;6.074;2022-11-04T04:46:24;14.97;;;4.70;;
17618;SDS011;8928;51.678;6.074;2022-11-04T04:49:11;19.37;;;5.20;;
17618;SDS011;8928;51.678;6.074;2022-11-04T04:51:58;14.33;;;5.10;;
17618;SDS011;8928;51.678;6.074;2022-11-04T04:54:47;18.60;;;4.70;;
17618;SDS011;8928;51.678;6.074;2022-11-04T04:57:34;14.53;;;5.00;;
17618;SDS011;8928;51.678;6.074;2022-11-04T05:00:21;19.77;;;5.50;;
17618;SDS011;8928;51.678;6.074;2022-11-04T05:03:09;17.47;;;5.50;;
17618;SDS011;8928;51.678;6.074;2022-11-04T05:05:58;12.70;;;4.80;;
17618;SDS011;8928;51.678;6.074;2022-11-04T05:08:45;15.47;;;5.07;;
17618;SDS011;8928;51.678;6.074;2022-11-04T05:11:32;20.83;;;5.17;;
17618;SDS011;8928;51.678;6.074;2022-11-04T05:14:19;13.17;;;5.03;;
17618;SDS011;8928;51.678;6.074;2022-11-04T05:17:06;21.67;;;5.23;;
17618;SDS011;8928;51.678;6.074;2022-11-04T05:19:54;18.17;;;5.20;;
17618;SDS011;8928;51.678;6.074;2022-11-04T05:22:41;19.73;;;5.20;;
17618;SDS011;8928;51.678;6.074;2022-11-04T05:25:28;17.67;;;5.40;;
17618;SDS011;8928;51.678;6.074;2022-11-04T05:28:15;12.53;;;4.63;;
17618;SDS011;8928;51.678;6.074;2022-11-04T05:31:03;16.53;;;5.50;;
17618;SDS011;8928;51.678;6.074;2022-11-04T05:33:50;15.07;;;5.20;;
17618;SDS011;8928;51.678;6.074;2022-11-04T05:36:39;15.33;;;5.87;;
17618;SDS011;8928;51.678;6.074;2022-11-04T05:39:26;16.90;;;5.97;;
17618;SDS011;8928;51.678;6.074;2022-11-04T05:42:13;16.40;;;5.63;;
17618;SDS011;8928;51.678;6.074;2022-11-04T05:45:01;20.07;;;5.90;;
17618;SDS011;8928;51.678;6.074;2022-11-04T05:47:49;19.17;;;5.53;;
17618;SDS011;8928;51.678;6.074;2022-11-04T05:50:42;22.20;;;6.23;;
17618;SDS011;8928;51.678;6.074;2022-11-04T05:53:31;57.17;;;6.13;;
17618;SDS011;8928;51.678;6.074;2022-11-04T05:56:18;25.63;;;6.17;;
17618;SDS011;8928;51.678;6.074;2022-11-04T05:59:05;21.50;;;6.60;;
17618;SDS011;8928;51.678;6.074;2022-11-04T06:01:52;22.90;;;6.33;;
17618;SDS011;8928;51.678;6.074;2022-11-04T06:04:39;17.30;;;6.77;;
17618;SDS011;8928;51.678;6.074;2022-11-04T06:07:26;24.10;;;7.13;;
17618;SDS011;8928;51.678;6.074;2022-11-04T06:10:15;22.40;;;7.37;;
17618;SDS011;8928;51.678;6.074;2022-11-04T06:13:02;21.73;;;7.13;;
17618;SDS011;8928;51.678;6.074;2022-11-04T06:15:49;16.07;;;6.63;;
17618;SDS011;8928;51.678;6.074;2022-11-04T06:18:36;19.13;;;7.07;;
17618;SDS011;8928;51.678;6.074;2022-11-04T06:21:24;24.93;;;7.03;;
17618;SDS011;8928;51.678;6.074;2022-11-04T06:24:12;28.43;;;8.10;;
17618;SDS011;8928;51.678;6.074;2022-11-04T06:27:01;22.67;;;7.63;;
17618;SDS011;8928;51.678;6.074;2022-11-04T06:29:48;22.27;;;8.07;;
17618;SDS011;8928;51.678;6.074;2022-11-04T06:32:37;26.57;;;9.03;;
17618;SDS011;8928;51.678;6.074;2022-11-04T06:35:24;27.93;;;9.57;;
17618;SDS011;8928;51.678;6.074;2022-11-04T06:38:11;32.57;;;13.30;;
17618;SDS011;8928;51.678;6.074;2022-11-04T06:40:58;41.13;;;16.13;;
17618;SDS011;8928;51.678;6.074;2022-11-04T06:43:46;48.17;;;19.03;;
17618;SDS011;8928;51.678;6.074;2022-11-04T06:46:34;49.47;;;16.70;;
17618;SDS011;8928;51.678;6.074;2022-11-04T06:49:23;31.30;;;12.57;;
17618;SDS011;8928;51.678;6.074;2022-11-04T06:52:10;24.00;;;10.90;;
17618;SDS011;8928;51.678;6.074;2022-11-04T06:54:57;24.20;;;10.50;;
17618;SDS011;8928;51.678;6.074;2022-11-04T06:57:44;29.77;;;11.20;;
17618;SDS011;8928;51.678;6.074;2022-11-04T07:00:32;27.33;;;11.27;;
17618;SDS011;8928;51.678;6.074;2022-11-04T07:03:20;25.70;;;11.07;;
17618;SDS011;8928;51.678;6.074;2022-11-04T07:06:07;28.37;;;11.87;;
17618;SDS011;8928;51.678;6.074;2022-11-04T07:08:56;32.67;;;12.83;;
17618;SDS011;8928;51.678;6.074;2022-11-04T07:11:44;42.57;;;13.67;;
17618;SDS011;8928;51.678;6.074;2022-11-04T07:14:31;32.67;;;12.97;;
17618;SDS011;8928;51.678;6.074;2022-11-04T07:17:20;35.33;;;13.20;;
17618;SDS011;8928;51.678;6.074;2022-11-04T07:20:07;42.83;;;13.97;;
17618;SDS011;8928;51.678;6.074;2022-11-04T07:22:57;32.10;;;12.73;;
17618;SDS011;8928;51.678;6.074;2022-11-04T07:25:44;34.37;;;12.83;;
17618;SDS011;8928;51.678;6.074;2022-11-04T07:28:31;38.07;;;12.80;;
17618;SDS011;8928;51.678;6.074;2022-11-04T07:31:18;38.47;;;12.97;;
17618;SDS011;8928;51.678;6.074;2022-11-04T07:34:07;28.93;;;11.97;;
17618;SDS011;8928;51.678;6.074;2022-11-04T07:36:54;36.83;;;12.40;;
17618;SDS011;8928;51.678;6.074;2022-11-04T07:39:41;36.17;;;10.80;;
17618;SDS011;8928;51.678;6.074;2022-11-04T07:42:28;30.63;;;9.33;;
17618;SDS011;8928;51.678;6.074;2022-11-04T07:45:16;28.23;;;9.77;;
17618;SDS011;8928;51.678;6.074;2022-11-04T07:48:03;29.60;;;9.30;;
17618;SDS011;8928;51.678;6.074;2022-11-04T07:50:54;26.63;;;9.50;;
17618;SDS011;8928;51.678;6.074;2022-11-04T07:53:42;29.80;;;9.10;;
17618;SDS011;8928;51.678;6.074;2022-11-04T07:56:29;22.03;;;8.40;;
17618;SDS011;8928;51.678;6.074;2022-11-04T07:59:16;28.63;;;9.17;;
17618;SDS011;8928;51.678;6.074;2022-11-04T08:02:03;22.70;;;9.10;;
17618;SDS011;8928;51.678;6.074;2022-11-04T08:04:51;22.83;;;8.73;;
17618;SDS011;8928;51.678;6.074;2022-11-04T08:07:39;26.37;;;8.50;;
17618;SDS011;8928;51.678;6.074;2022-11-04T08:10:28;24.27;;;8.70;;
17618;SDS011;8928;51.678;6.074;2022-11-04T08:13:15;23.70;;;8.87;;
17618;SDS011;8928;51.678;6.074;2022-11-04T08:16:02;25.70;;;8.53;;
17618;SDS011;8928;51.678;6.074;2022-11-04T08:18:51;20.57;;;8.23;;
17618;SDS011;8928;51.678;6.074;2022-11-04T08:21:38;24.93;;;8.67;;
17618;SDS011;8928;51.678;6.074;2022-11-04T08:24:26;20.43;;;9.33;;
17618;SDS011;8928;51.678;6.074;2022-11-04T08:27:13;31.50;;;8.90;;
17618;SDS011;8928;51.678;6.074;2022-11-04T08:30:00;29.07;;;8.80;;
17618;SDS011;8928;51.678;6.074;2022-11-04T08:32:47;23.57;;;8.87;;
17618;SDS011;8928;51.678;6.074;2022-11-04T08:35:34;25.97;;;9.47;;
17618;SDS011;8928;51.678;6.074;2022-11-04T08:38:21;23.83;;;8.57;;
17618;SDS011;8928;51.678;6.074;2022-11-04T08:41:10;26.40;;;9.07;;
17618;SDS011;8928;51.678;6.074;2022-11-04T08:43:59;24.63;;;9.37;;
17618;SDS011;8928;51.678;6.074;2022-11-04T08:46:48;24.97;;;9.13;;
17618;SDS011;8928;51.678;6.074;2022-11-04T08:49:36;24.40;;;8.77;;
17618;SDS011;8928;51.678;6.074;2022-11-04T08:52:24;20.60;;;9.20;;
17618;SDS011;8928;51.678;6.074;2022-11-04T08:55:11;23.67;;;8.47;;
17618;SDS011;8928;51.678;6.074;2022-11-04T08:58:00;18.70;;;8.07;;
17618;SDS011;8928;51.678;6.074;2022-11-04T09:00:48;19.00;;;8.23;;
17618;SDS011;8928;51.678;6.074;2022-11-04T09:03:35;21.83;;;7.90;;
17618;SDS011;8928;51.678;6.074;2022-11-04T09:06:23;19.60;;;7.43;;
17618;SDS011;8928;51.678;6.074;2022-11-04T09:09:13;16.80;;;7.60;;
17618;SDS011;8928;51.678;6.074;2022-11-04T09:12:01;19.40;;;7.70;;
17618;SDS011;8928;51.678;6.074;2022-11-04T09:14:49;20.97;;;7.90;;
17618;SDS011;8928;51.678;6.074;2022-11-04T09:17:36;25.30;;;8.00;;
17618;SDS011;8928;51.678;6.074;2022-11-04T09:20:24;24.70;;;7.97;;
17618;SDS011;8928;51.678;6.074;2022-11-04T09:23:11;18.67;;;7.93;;
17618;SDS011;8928;51.678;6.074;2022-11-04T09:26:02;16.97;;;7.53;;
17618;SDS011;8928;51.678;6.074;2022-11-04T09:28:52;30.07;;;7.23;;
17618;SDS011;8928;51.678;6.074;2022-11-04T09:31:41;20.83;;;7.23;;
17618;SDS011;8928;51.678;6.074;2022-11-04T09:34:28;22.00;;;7.33;;
17618;SDS011;8928;51.678;6.074;2022-11-04T09:37:15;19.43;;;7.00;;
17618;SDS011;8928;51.678;6.074;2022-11-04T09:40:03;22.03;;;7.03;;
17618;SDS011;8928;51.678;6.074;2022-11-04T09:42:53;18.60;;;7.60;;
17618;SDS011;8928;51.678;6.074;2022-11-04T09:45:51;19.37;;;7.87;;
17618;SDS011;8928;51.678;6.074;2022-11-04T09:48:40;19.70;;;8.07;;
17618;SDS011;8928;51.678;6.074;2022-11-04T09:51:31;21.63;;;6.97;;
17618;SDS011;8928;51.678;6.074;2022-11-04T09:54:19;20.73;;;7.10;;
17618;SDS011;8928;51.678;6.074;2022-11-04T09:57:11;18.70;;;6.60;;
17618;SDS011;8928;51.678;6.074;2022-11-04T10:00:02;16.67;;;5.70;;
17618;SDS011;8928;51.678;6.074;2022-11-04T10:02:55;16.00;;;6.10;;
17618;SDS011;8928;51.678;6.074;2022-11-04T10:05:54;13.80;;;5.90;;
17618;SDS011;8928;51.678;6.074;2022-11-04T10:08:55;18.03;;;5.90;;
17618;SDS011;8928;51.678;6.074;2022-11-04T10:12:04;20.00;;;5.53;;
17618;SDS011;8928;51.678;6.074;2022-11-04T10:15:07;14.27;;;5.40;;
17618;SDS011;8928;51.678;6.074;2022-11-04T10:18:06;14.37;;;5.40;;
17618;SDS011;8928;51.678;6.074;2022-11-04T10:21:06;13.33;;;5.43;;
17618;SDS011;8928;51.678;6.074;2022-11-04T10:24:06;13.80;;;5.20;;
17618;SDS011;8928;51.678;6.074;2022-11-04T10:27:02;13.10;;;4.73;;
17618;SDS011;8928;51.678;6.074;2022-11-04T10:29:51;16.27;;;4.90;;
17618;SDS011;8928;51.678;6.074;2022-11-04T10:32:44;14.43;;;4.80;;
17618;SDS011;8928;51.678;6.074;2022-11-04T10:35:39;15.40;;;5.00;;
17618;SDS011;8928;51.678;6.074;2022-11-04T10:38:34;17.27;;;4.73;;
17618;SDS011;8928;51.678;6.074;2022-11-04T10:41:25;16.33;;;5.43;;
17618;SDS011;8928;51.678;6.074;2022-11-04T10:44:19;15.73;;;5.50;;
17618;SDS011;8928;51.678;6.074;2022-11-04T10:47:12;15.00;;;5.70;;
17618;SDS011;8928;51.678;6.074;2022-11-04T10:50:13;13.50;;;5.33;;
17618;SDS011;8928;51.678;6.074;2022-11-04T10:53:11;16.37;;;5.53;;
17618;SDS011;8928;51.678;6.074;2022-11-04T10:56:02;14.23;;;5.60;;
17618;SDS011;8928;51.678;6.074;2022-11-04T10:58:52;16.43;;;4.60;;
17618;SDS011;8928;51.678;6.074;2022-11-04T11:01:39;12.93;;;4.63;;
17618;SDS011;8928;51.678;6.074;2022-11-04T11:04:35;11.47;;;4.37;;
17618;SDS011;8928;51.678;6.074;2022-11-04T11:07:24;11.63;;;4.37;;
17618;SDS011;8928;51.678;6.074;2022-11-04T11:10:23;18.47;;;4.90;;
17618;SDS011;8928;51.678;6.074;2022-11-04T11:13:22;11.67;;;4.47;;
17618;SDS011;8928;51.678;6.074;2022-11-04T11:16:12;19.53;;;5.20;;
17618;SDS011;8928;51.678;6.074;2022-11-04T11:19:07;15.83;;;5.00;;
17618;SDS011;8928;51.678;6.074;2022-11-04T11:22:00;15.20;;;5.20;;
17618;SDS011;8928;51.678;6.074;2022-11-04T11:24:47;16.10;;;5.53;;
17618;SDS011;8928;51.678;6.074;2022-11-04T11:27:34;17.30;;;5.60;;
17618;SDS011;8928;51.678;6.074;2022-11-04T11:30:23;15.20;;;5.57;;
17618;SDS011;8928;51.678;6.074;2022-11-04T11:33:14;14.83;;;5.33;;
17618;SDS011;8928;51.678;6.074;2022-11-04T11:36:05;16.90;;;5.73;;
17618;SDS011;8928;51.678;6.074;2022-11-04T11:39:00;18.03;;;6.20;;
17618;SDS011;8928;51.678;6.074;2022-11-04T11:41:51;20.10;;;6.53;;
17618;SDS011;8928;51.678;6.074;2022-11-04T11:44:42;19.53;;;6.20;;
17618;SDS011;8928;51.678;6.074;2022-11-04T11:47:35;19.93;;;6.27;;
17618;SDS011;8928;51.678;6.074;2022-11-04T11:50:27;15.83;;;5.77;;
17618;SDS011;8928;51.678;6.074;2022-11-04T11:53:19;16.70;;;5.60;;
17618;SDS011;8928;51.678;6.074;2022-11-04T11:56:12;19.13;;;5.70;;
17618;SDS011;8928;51.678;6.074;2022-11-04T11:59:05;17.47;;;5.87;;
17618;SDS011;8928;51.678;6.074;2022-11-04T12:02:03;15.13;;;5.30;;
17618;SDS011;8928;51.678;6.074;2022-11-04T12:05:08;16.00;;;5.63;;
17618;SDS011;8928;51.678;6.074;2022-11-04T12:07:58;17.40;;;5.47;;
17618;SDS011;8928;51.678;6.074;2022-11-04T12:10:55;13.27;;;5.87;;
17618;SDS011;8928;51.678;6.074;2022-11-04T12:13:53;21.47;;;6.20;;
17618;SDS011;8928;51.678;6.074;2022-11-04T12:16:45;14.10;;;6.50;;
17618;SDS011;8928;51.678;6.074;2022-11-04T12:19:41;15.97;;;6.10;;
17618;SDS011;8928;51.678;6.074;2022-11-04T12:22:41;17.13;;;5.97;;
17618;SDS011;8928;51.678;6.074;2022-11-04T12:25:36;14.60;;;6.43;;
17618;SDS011;8928;51.678;6.074;2022-11-04T12:28:35;17.97;;;7.20;;
17618;SDS011;8928;51.678;6.074;2022-11-04T12:31:33;13.77;;;6.43;;
17618;SDS011;8928;51.678;6.074;2022-11-04T12:34:31;17.13;;;7.10;;
17618;SDS011;8928;51.678;6.074;2022-11-04T12:37:32;17.70;;;7.43;;
17618;SDS011;8928;51.678;6.074;2022-11-04T12:40:27;15.50;;;6.97;;
17618;SDS011;8928;51.678;6.074;2022-11-04T12:43:21;18.97;;;7.60;;
17618;SDS011;8928;51.678;6.074;2022-11-04T12:46:14;16.93;;;7.00;;
17618;SDS011;8928;51.678;6.074;2022-11-04T12:49:21;17.50;;;7.60;;
17618;SDS011;8928;51.678;6.074;2022-11-04T12:52:40;19.43;;;7.27;;
17618;SDS011;8928;51.678;6.074;2022-11-04T12:55:43;20.33;;;7.73;;
17618;SDS011;8928;51.678;6.074;2022-11-04T12:58:40;17.70;;;7.00;;
17618;SDS011;8928;51.678;6.074;2022-11-04T13:01:32;17.90;;;7.00;;
17618;SDS011;8928;51.678;6.074;2022-11-04T13:04:24;16.33;;;6.50;;
17618;SDS011;8928;51.678;6.074;2022-11-04T13:07:18;17.63;;;6.73;;
17618;SDS011;8928;51.678;6.074;2022-11-04T13:10:13;18.87;;;7.00;;
17618;SDS011;8928;51.678;6.074;2022-11-04T13:13:06;18.23;;;7.07;;
17618;SDS011;8928;51.678;6.074;2022-11-04T13:15:56;16.57;;;7.20;;
17618;SDS011;8928;51.678;6.074;2022-11-04T13:18:47;16.80;;;6.43;;
17618;SDS011;8928;51.678;6.074;2022-11-04T13:21:35;16.17;;;6.17;;
17618;SDS011;8928;51.678;6.074;2022-11-04T13:24:24;15.50;;;6.60;;
17618;SDS011;8928;51.678;6.074;2022-11-04T13:27:16;18.03;;;6.27;;
17618;SDS011;8928;51.678;6.074;2022-11-04T13:30:11;22.67;;;6.90;;
17618;SDS011;8928;51.678;6.074;2022-11-04T13:33:07;13.37;;;6.40;;
17618;SDS011;8928;51.678;6.074;2022-11-04T13:36:00;18.53;;;6.10;;
17618;SDS011;8928;51.678;6.074;2022-11-04T13:38:58;19.40;;;5.67;;
17618;SDS011;8928;51.678;6.074;2022-11-04T13:42:03;21.00;;;6.20;;
17618;SDS011;8928;51.678;6.074;2022-11-04T13:45:12;20.83;;;5.70;;
17618;SDS011;8928;51.678;6.074;2022-11-04T13:48:02;18.83;;;5.63;;
17618;SDS011;8928;51.678;6.074;2022-11-04T13:50:58;14.83;;;5.00;;
17618;SDS011;8928;51.678;6.074;2022-11-04T13:53:47;14.60;;;4.90;;
17618;SDS011;8928;51.678;6.074;2022-11-04T13:56:36;17.80;;;5.53;;
17618;SDS011;8928;51.678;6.074;2022-11-04T13:59:26;11.33;;;5.23;;
17618;SDS011;8928;51.678;6.074;2022-11-04T14:02:31;13.03;;;5.27;;
17618;SDS011;8928;51.678;6.074;2022-11-04T14:05:43;19.90;;;6.13;;
17618;SDS011;8928;51.678;6.074;2022-11-04T14:08:32;14.03;;;6.37;;
17618;SDS011;8928;51.678;6.074;2022-11-04T14:11:19;17.60;;;6.33;;
17618;SDS011;8928;51.678;6.074;2022-11-04T14:14:14;16.53;;;7.17;;
17618;SDS011;8928;51.678;6.074;2022-11-04T14:17:03;17.80;;;7.50;;
17618;SDS011;8928;51.678;6.074;2022-11-04T14:20:31;17.70;;;7.10;;
17618;SDS011;8928;51.678;6.074;2022-11-04T14:23:21;13.17;;;6.37;;
17618;SDS011;8928;51.678;6.074;2022-11-04T14:26:09;10.27;;;5.30;;
17618;SDS011;8928;51.678;6.074;2022-11-04T14:28:59;9.63;;;5.00;;
17618;SDS011;8928;51.678;6.074;2022-11-04T14:31:51;9.60;;;4.17;;
17618;SDS011;8928;51.678;6.074;2022-11-04T14:34:41;8.57;;;3.80;;
17618;SDS011;8928;51.678;6.074;2022-11-04T14:37:30;13.23;;;4.50;;
17618;SDS011;8928;51.678;6.074;2022-11-04T14:40:24;10.03;;;3.60;;
17618;SDS011;8928;51.678;6.074;2022-11-04T14:43:17;8.00;;;2.70;;
17618;SDS011;8928;51.678;6.074;2022-11-04T14:46:17;6.90;;;2.20;;
17618;SDS011;8928;51.678;6.074;2022-11-04T14:49:31;3.90;;;1.87;;
17618;SDS011;8928;51.678;6.074;2022-11-04T14:52:25;5.90;;;2.00;;
17618;SDS011;8928;51.678;6.074;2022-11-04T14:55:15;9.97;;;2.73;;
17618;SDS011;8928;51.678;6.074;2022-11-04T14:58:19;3.93;;;2.23;;
17618;SDS011;8928;51.678;6.074;2022-11-04T15:01:09;6.10;;;2.70;;
17618;SDS011;8928;51.678;6.074;2022-11-04T15:04:03;8.93;;;3.30;;
17618;SDS011;8928;51.678;6.074;2022-11-04T15:06:52;5.80;;;2.90;;
17618;SDS011;8928;51.678;6.074;2022-11-04T15:09:40;6.93;;;2.70;;
17618;SDS011;8928;51.678;6.074;2022-11-04T15:12:35;5.30;;;2.57;;
17618;SDS011;8928;51.678;6.074;2022-11-04T15:15:36;7.77;;;3.00;;
17618;SDS011;8928;51.678;6.074;2022-11-04T15:18:25;8.87;;;4.77;;
17618;SDS011;8928;51.678;6.074;2022-11-04T15:21:13;12.53;;;7.17;;
17618;SDS011;8928;51.678;6.074;2022-11-04T15:24:01;20.57;;;8.60;;
17618;SDS011;8928;51.678;6.074;2022-11-04T15:26:48;16.40;;;8.40;;
17618;SDS011;8928;51.678;6.074;2022-11-04T15:29:38;19.07;;;11.07;;
17618;SDS011;8928;51.678;6.074;2022-11-04T15:32:25;27.27;;;13.20;;
17618;SDS011;8928;51.678;6.074;2022-11-04T15:35:12;29.63;;;13.40;;
17618;SDS011;8928;51.678;6.074;2022-11-04T15:38:00;25.70;;;14.70;;
17618;SDS011;8928;51.678;6.074;2022-11-04T15:40:48;32.73;;;15.60;;
17618;SDS011;8928;51.678;6.074;2022-11-04T15:43:36;29.87;;;15.17;;
17618;SDS011;8928;51.678;6.074;2022-11-04T15:46:25;26.57;;;15.33;;
17618;SDS011;8928;51.678;6.074;2022-11-04T15:49:18;29.13;;;15.03;;
17618;SDS011;8928;51.678;6.074;2022-11-04T15:52:11;32.37;;;15.87;;
17618;SDS011;8928;51.678;6.074;2022-11-04T15:55:02;34.17;;;15.23;;
17618;SDS011;8928;51.678;6.074;2022-11-04T15:57:50;35.93;;;16.93;;
17618;SDS011;8928;51.678;6.074;2022-11-04T16:00:38;31.57;;;17.40;;
17618;SDS011;8928;51.678;6.074;2022-11-04T16:03:26;29.67;;;16.93;;
17618;SDS011;8928;51.678;6.074;2022-11-04T16:06:13;34.77;;;18.87;;
17618;SDS011;8928;51.678;6.074;2022-11-04T16:09:02;41.37;;;18.37;;
17618;SDS011;8928;51.678;6.074;2022-11-04T16:12:06;56.13;;;27.27;;
17618;SDS011;8928;51.678;6.074;2022-11-04T16:14:58;40.50;;;23.83;;
17618;SDS011;8928;51.678;6.074;2022-11-04T16:17:45;40.10;;;21.90;;
17618;SDS011;8928;51.678;6.074;2022-11-04T16:20:33;40.90;;;20.90;;
17618;SDS011;8928;51.678;6.074;2022-11-04T16:23:21;46.50;;;22.07;;
17618;SDS011;8928;51.678;6.074;2022-11-04T16:26:10;38.77;;;20.63;;
17618;SDS011;8928;51.678;6.074;2022-11-04T16:28:58;37.47;;;20.20;;
17618;SDS011;8928;51.678;6.074;2022-11-04T16:31:47;37.57;;;20.20;;
17618;SDS011;8928;51.678;6.074;2022-11-04T16:34:52;35.77;;;18.70;;
17618;SDS011;8928;51.678;6.074;2022-11-04T16:37:42;39.73;;;18.73;;
17618;SDS011;8928;51.678;6.074;2022-11-04T16:40:30;30.80;;;17.47;;
17618;SDS011;8928;51.678;6.074;2022-11-04T16:43:20;31.97;;;16.43;;
17618;SDS011;8928;51.678;6.074;2022-11-04T16:46:07;29.17;;;14.23;;
17618;SDS011;8928;51.678;6.074;2022-11-04T16:48:57;26.07;;;13.30;;
17618;SDS011;8928;51.678;6.074;2022-11-04T16:51:44;25.97;;;12.63;;
17618;SDS011;8928;51.678;6.074;2022-11-04T16:54:34;23.00;;;12.00;;
17618;SDS011;8928;51.678;6.074;2022-11-04T16:57:22;25.63;;;11.73;;
17618;SDS011;8928;51.678;6.074;2022-11-04T17:00:15;17.17;;;8.60;;
17618;SDS011;8928;51.678;6.074;2022-11-04T17:03:11;15.60;;;7.13;;
17618;SDS011;8928;51.678;6.074;2022-11-04T17:06:05;12.80;;;5.90;;
17618;SDS011;8928;51.678;6.074;2022-11-04T17:08:53;13.47;;;7.00;;
17618;SDS011;8928;51.678;6.074;2022-11-04T17:11:42;13.23;;;7.17;;
17618;SDS011;8928;51.678;6.074;2022-11-04T17:14:29;13.60;;;6.63;;
17618;SDS011;8928;51.678;6.074;2022-11-04T17:17:16;12.17;;;5.97;;